Time;durP1;ratioP1;P1;durP2;ratioP2;P2;SDS_P1;SDS_P2;PMS_P1;PMS_P2;Temp;Humidity;BMP_temperature;BMP_pressure;BME280_temperature;BME280_humidity;BME280_pressure;Samples;Min_cycle;Max_cycle;Signal;HPM_P1;HPM_P2
2021/03/15 00:00:44;;;;;;;4.60;2.10;;;6.70;97.00;;;;;;5064880;28;20024;-36
2021/03/15 00:03:11;;;;;;;4.35;2.08;;;6.70;96.90;;;;;;5064816;28;20040;-38
2021/03/15 00:05:37;;;;;;;4.18;1.73;;;6.70;96.90;;;;;;5065588;28;20028;-37
2021/03/15 00:08:06;;;;;;;5.57;2.05;;;6.70;96.90;;;;;;5064853;28;20149;-38
2021/03/15 00:10:33;;;;;;;6.90;2.15;;;6.70;96.90;;;;;;5065367;28;20017;-36
2021/03/15 00:13:01;;;;;;;4.30;2.20;;;6.70;96.90;;;;;;5066080;28;20021;-34
2021/03/15 00:15:27;;;;;;;5.53;2.60;;;6.70;96.90;;;;;;5065231;28;20159;-36
2021/03/15 00:17:52;;;;;;;5.85;3.30;;;6.70;97.10;;;;;;5065419;28;20543;-39
2021/03/15 00:20:20;;;;;;;8.20;3.83;;;6.80;97.20;;;;;;5065403;28;20020;-37
2021/03/15 00:22:47;;;;;;;8.02;3.30;;;6.80;97.40;;;;;;5065199;28;20043;-34
2021/03/15 00:25:14;;;;;;;8.10;4.30;;;6.80;97.30;;;;;;5065110;28;20104;-35
2021/03/15 00:27:41;;;;;;;7.45;4.07;;;6.80;97.60;;;;;;5065357;28;20024;-36
2021/03/15 00:30:16;;;;;;;6.53;4.50;;;6.80;98.20;;;;;;5064865;28;20388;-37
2021/03/15 00:32:42;;;;;;;7.97;4.32;;;6.70;98.10;;;;;;5064217;28;20432;-35
2021/03/15 00:35:10;;;;;;;6.50;3.78;;;6.70;98.70;;;;;;5064795;28;20047;-35
2021/03/15 00:37:39;;;;;;;7.00;3.40;;;6.60;98.20;;;;;;5064574;28;20028;-36
2021/03/15 00:40:07;;;;;;;6.88;3.33;;;6.60;98.30;;;;;;5065249;28;20032;-37
2021/03/15 00:42:32;;;;;;;6.28;3.75;;;6.60;98.30;;;;;;5064339;28;20148;-36
2021/03/15 00:44:58;;;;;;;8.10;3.60;;;6.60;98.50;;;;;;5065620;28;20124;-42
2021/03/15 00:47:24;;;;;;;6.28;3.60;;;6.60;98.40;;;;;;5064944;28;20039;-37
2021/03/15 00:49:49;;;;;;;7.60;3.90;;;6.60;98.50;;;;;;5064592;28;20036;-35
2021/03/15 00:52:15;;;;;;;5.05;3.28;;;6.60;98.60;;;;;;5064543;28;20468;-37
2021/03/15 00:54:40;;;;;;;5.35;3.35;;;6.60;98.60;;;;;;5065008;28;20127;-39
2021/03/15 00:57:06;;;;;;;8.48;3.45;;;6.60;98.50;;;;;;5064491;28;20024;-36
2021/03/15 00:59:31;;;;;;;3.22;2.78;;;6.60;98.60;;;;;;5064809;28;20488;-36
2021/03/15 01:01:57;;;;;;;4.40;3.13;;;6.60;98.50;;;;;;5064775;28;20047;-37
2021/03/15 01:04:23;;;;;;;4.90;3.10;;;6.60;98.40;;;;;;5064872;28;20036;-39
2021/03/15 01:06:48;;;;;;;4.25;3.00;;;6.60;98.40;;;;;;5064764;28;20040;-36
2021/03/15 01:09:15;;;;;;;7.55;2.90;;;6.60;98.40;;;;;;5064929;28;20174;-37
2021/03/15 01:11:40;;;;;;;5.80;2.90;;;6.60;98.30;;;;;;5064679;28;20029;-36
2021/03/15 01:14:10;;;;;;;3.38;2.60;;;6.60;98.30;;;;;;5064344;28;20491;-38
2021/03/15 01:16:36;;;;;;;4.45;2.42;;;6.60;98.30;;;;;;5064733;28;20111;-35
2021/03/15 01:19:03;;;;;;;4.00;2.88;;;6.60;98.50;;;;;;5064230;28;20712;-38
2021/03/15 01:21:28;;;;;;;5.13;2.92;;;6.60;98.50;;;;;;5065123;28;20083;-37
2021/03/15 01:23:55;;;;;;;4.90;2.80;;;6.60;98.60;;;;;;5064608;28;20104;-38
2021/03/15 01:26:20;;;;;;;3.78;2.42;;;6.60;98.50;;;;;;5064675;28;20029;-36
2021/03/15 01:28:46;;;;;;;3.15;2.42;;;6.60;98.50;;;;;;5064357;28;20040;-37
2021/03/15 01:31:12;;;;;;;4.28;2.55;;;6.60;98.40;;;;;;5064516;28;20029;-37
2021/03/15 01:33:38;;;;;;;5.80;2.85;;;6.60;98.40;;;;;;5064276;28;20045;-35
2021/03/15 01:36:04;;;;;;;4.50;3.00;;;6.60;98.30;;;;;;5064464;28;20063;-37
2021/03/15 01:38:29;;;;;;;6.13;3.20;;;6.60;98.30;;;;;;5064564;28;20090;-37
2021/03/15 01:40:55;;;;;;;3.72;2.40;;;6.70;98.30;;;;;;5064404;28;20464;-36
2021/03/15 01:43:20;;;;;;;4.88;2.40;;;6.60;98.20;;;;;;5064236;28;20043;-36
2021/03/15 01:45:46;;;;;;;4.55;2.80;;;6.70;98.20;;;;;;5064679;28;20044;-37
2021/03/15 01:48:13;;;;;;;3.75;3.28;;;6.70;98.20;;;;;;5064473;28;20329;-36
2021/03/15 01:50:44;;;;;;;4.57;2.70;;;6.70;98.20;;;;;;5064697;28;20093;-36
2021/03/15 01:53:12;;;;;;;6.30;3.17;;;6.70;98.20;;;;;;5063823;28;20049;-37
2021/03/15 01:55:37;;;;;;;3.88;2.58;;;6.70;98.20;;;;;;5064713;28;20097;-34
2021/03/15 01:58:04;;;;;;;4.18;3.03;;;6.60;98.30;;;;;;5064459;28;20025;-36
2021/03/15 02:00:30;;;;;;;8.20;3.20;;;6.70;98.30;;;;;;5063844;28;20021;-38
2021/03/15 02:03:00;;;;;;;4.90;3.10;;;6.60;98.40;;;;;;5064847;28;20059;-34
2021/03/15 02:05:27;;;;;;;5.63;3.38;;;6.60;98.40;;;;;;5063957;28;20029;-35
2021/03/15 02:07:53;;;;;;;5.97;3.20;;;6.60;98.40;;;;;;5064139;28;20029;-36
2021/03/15 02:10:19;;;;;;;6.32;3.30;;;6.60;98.40;;;;;;5064474;28;20517;-33
2021/03/15 02:13:20;;;;;;;6.38;3.10;;;6.60;98.50;;;;;;5064459;28;20029;-35
2021/03/15 02:16:20;;;;;;;4.97;3.13;;;6.70;98.50;;;;;;5063875;28;20090;-37
2021/03/15 02:18:46;;;;;;;6.50;3.63;;;6.70;98.40;;;;;;5064823;28;20337;-37
2021/03/15 02:21:46;;;;;;;5.20;3.45;;;6.60;98.50;;;;;;5063482;28;20063;-35
2021/03/15 02:24:33;;;;;;;5.68;3.25;;;6.70;98.40;;;;;;5064309;28;20039;-39
2021/03/15 02:27:26;;;;;;;6.10;3.70;;;6.70;98.30;;;;;;5066183;28;20093;-38
2021/03/15 02:30:15;;;;;;;4.25;2.90;;;6.70;98.30;;;;;;5067528;28;20441;-38
2021/03/15 02:33:20;;;;;;;5.68;3.90;;;6.70;98.40;;;;;;5068165;28;20024;-37
2021/03/15 02:35:48;;;;;;;8.43;4.80;;;6.70;98.40;;;;;;5066963;28;20012;-38
2021/03/15 02:38:15;;;;;;;11.20;5.43;;;6.70;98.40;;;;;;5067719;28;20344;-37
2021/03/15 02:40:47;;;;;;;9.38;5.22;;;6.70;98.50;;;;;;5068011;28;20017;-38
2021/03/15 02:43:22;;;;;;;6.30;3.97;;;6.60;98.50;;;;;;5067243;28;20032;-34
2021/03/15 02:45:52;;;;;;;5.28;3.88;;;6.60;98.60;;;;;;5067298;28;20267;-36
2021/03/15 02:48:19;;;;;;;4.90;3.97;;;6.60;98.60;;;;;;5067890;28;20036;-37
2021/03/15 02:50:46;;;;;;;6.13;3.83;;;6.60;98.70;;;;;;5067073;28;20028;-38
2021/03/15 02:53:14;;;;;;;4.70;3.50;;;6.60;98.70;;;;;;5067290;28;20062;-38
2021/03/15 02:55:41;;;;;;;3.25;2.80;;;6.60;98.70;;;;;;5067390;28;20021;-37
2021/03/15 02:58:08;;;;;;;3.92;3.08;;;6.60;98.60;;;;;;5067278;28;20115;-36
2021/03/15 03:00:35;;;;;;;3.45;2.58;;;6.60;98.70;;;;;;5065313;28;20101;-37
2021/03/15 03:03:06;;;;;;;4.55;2.80;;;6.60;98.70;;;;;;5067533;28;20024;-38
2021/03/15 03:05:33;;;;;;;3.38;2.80;;;6.60;98.60;;;;;;5066662;28;20102;-41
2021/03/15 03:08:00;;;;;;;4.25;2.75;;;6.60;98.70;;;;;;5067271;28;20097;-38
2021/03/15 03:10:27;;;;;;;3.85;3.20;;;6.50;98.70;;;;;;5066602;28;20043;-39
2021/03/15 03:12:54;;;;;;;3.10;2.85;;;6.50;98.80;;;;;;5066422;28;20032;-36
2021/03/15 03:15:29;;;;;;;2.95;2.67;;;6.50;98.70;;;;;;5066310;28;20110;-36
2021/03/15 03:17:58;;;;;;;3.15;2.85;;;6.50;98.70;;;;;;5065819;28;20025;-36
2021/03/15 03:20:25;;;;;;;4.13;2.92;;;6.50;98.70;;;;;;5067224;28;20139;-39
2021/03/15 03:22:53;;;;;;;2.85;2.55;;;6.50;98.70;;;;;;5066237;28;20043;-37
2021/03/15 03:25:22;;;;;;;4.35;2.78;;;6.50;98.70;;;;;;5046079;28;20087;-37
2021/03/15 03:27:57;;;;;;;4.47;2.50;;;6.50;98.70;;;;;;5061298;28;20094;-34
2021/03/15 03:30:29;;;;;;;3.42;3.05;;;6.50;98.70;;;;;;5066663;28;20412;-34
2021/03/15 03:32:57;;;;;;;2.85;2.63;;;6.50;98.70;;;;;;5066165;28;20025;-37
2021/03/15 03:35:24;;;;;;;2.97;2.40;;;6.50;98.70;;;;;;5066544;28;20021;-37
2021/03/15 03:37:49;;;;;;;5.82;3.53;;;6.50;98.60;;;;;;5066402;28;20367;-38
2021/03/15 03:40:16;;;;;;;5.55;3.95;;;6.50;98.80;;;;;;5065797;28;20041;-37
2021/03/15 03:42:42;;;;;;;5.20;3.58;;;6.50;98.80;;;;;;5065886;28;20693;-34
2021/03/15 03:45:08;;;;;;;4.68;3.50;;;6.50;98.70;;;;;;5066621;28;20034;-35
2021/03/15 03:47:35;;;;;;;5.57;3.47;;;6.50;98.70;;;;;;5064953;28;20021;-34
2021/03/15 03:50:01;;;;;;;5.00;3.63;;;6.50;98.70;;;;;;5065299;28;20047;-35
2021/03/15 03:52:29;;;;;;;5.68;4.38;;;6.50;98.80;;;;;;5064999;28;20044;-34
2021/03/15 03:55:06;;;;;;;6.20;4.38;;;6.50;98.80;;;;;;5065329;28;20025;-37
2021/03/15 03:57:35;;;;;;;6.63;5.00;;;6.50;98.90;;;;;;5065105;28;20111;-38
2021/03/15 04:00:08;;;;;;;9.23;5.38;;;6.50;99.10;;;;;;5064941;28;20059;-38
2021/03/15 04:02:43;;;;;;;9.43;4.93;;;6.50;99.40;;;;;;5064844;28;20121;-37
2021/03/15 04:05:09;;;;;;;6.80;4.80;;;6.50;99.30;;;;;;5065057;28;20112;-38
2021/03/15 04:07:46;;;;;;;6.78;4.50;;;6.50;99.20;;;;;;5064147;28;20032;-38
2021/03/15 04:10:15;;;;;;;6.60;5.32;;;6.50;99.20;;;;;;5062804;28;20124;-35
2021/03/15 04:12:46;;;;;;;10.77;5.90;;;6.50;99.50;;;;;;5064561;28;20050;-37
2021/03/15 04:15:15;;;;;;;12.10;6.22;;;6.50;99.80;;;;;;5064436;28;20035;-36
2021/03/15 04:17:42;;;;;;;8.55;5.50;;;6.40;99.80;;;;;;5064748;28;20054;-38
2021/03/15 04:20:14;;;;;;;9.98;5.85;;;6.40;99.90;;;;;;5064863;28;20033;-37
2021/03/15 04:22:46;;;;;;;9.38;6.03;;;6.40;99.90;;;;;;5064518;28;20456;-36
2021/03/15 04:25:13;;;;;;;11.52;5.82;;;6.40;99.90;;;;;;5064527;28;20020;-35
2021/03/15 04:27:43;;;;;;;9.90;5.38;;;6.40;99.80;;;;;;5064341;28;20028;-36
2021/03/15 04:30:11;;;;;;;12.13;5.63;;;6.50;99.80;;;;;;5064506;28;20108;-33
2021/03/15 04:32:37;;;;;;;13.80;7.18;;;6.50;99.80;;;;;;5064641;28;20114;-35
2021/03/15 04:35:03;;;;;;;12.98;6.72;;;6.50;99.80;;;;;;5064092;28;20123;-35
2021/03/15 04:37:30;;;;;;;13.00;6.82;;;6.50;99.80;;;;;;5064863;28;20024;-36
2021/03/15 04:39:56;;;;;;;12.35;6.05;;;6.50;99.80;;;;;;5064875;28;20020;-35
2021/03/15 04:42:22;;;;;;;12.80;5.82;;;6.50;99.70;;;;;;5063931;28;20040;-37
2021/03/15 04:44:49;;;;;;;12.57;5.90;;;6.50;99.70;;;;;;5064054;28;20082;-35
2021/03/15 04:47:15;;;;;;;13.60;6.03;;;6.50;99.70;;;;;;5064571;28;20318;-37
2021/03/15 04:49:41;;;;;;;11.55;6.57;;;6.60;99.60;;;;;;5063368;28;20086;-37
2021/03/15 04:52:08;;;;;;;9.30;6.15;;;6.60;99.60;;;;;;5064082;28;20127;-34
2021/03/15 04:54:33;;;;;;;8.27;5.85;;;6.60;99.50;;;;;;5064606;28;20021;-39
2021/03/15 04:57:00;;;;;;;10.77;5.70;;;6.60;99.50;;;;;;5064035;28;20021;-37
2021/03/15 04:59:29;;;;;;;12.95;5.72;;;6.60;99.50;;;;;;5064084;28;20054;-36
2021/03/15 05:01:55;;;;;;;10.80;5.53;;;6.60;99.40;;;;;;5064898;28;20468;-39
2021/03/15 05:04:22;;;;;;;9.48;5.22;;;6.50;99.30;;;;;;5064200;28;20074;-39
2021/03/15 05:06:53;;;;;;;9.50;5.00;;;6.50;99.30;;;;;;5063436;28;20032;-39
2021/03/15 05:09:19;;;;;;;8.00;4.95;;;6.50;99.30;;;;;;5065402;28;20115;-39
2021/03/15 05:11:44;;;;;;;7.80;5.15;;;6.50;99.30;;;;;;5064189;28;20055;-37
2021/03/15 05:14:15;;;;;;;7.38;5.35;;;6.50;99.30;;;;;;5064900;28;20064;-37
2021/03/15 05:16:42;;;;;;;8.10;4.97;;;6.40;99.30;;;;;;5064734;28;20486;-37
2021/03/15 05:19:10;;;;;;;10.90;4.93;;;6.40;99.30;;;;;;5064638;28;20115;-34
2021/03/15 05:21:38;;;;;;;11.07;5.07;;;6.40;99.30;;;;;;5064666;28;20063;-34
2021/03/15 05:24:04;;;;;;;7.60;4.72;;;6.40;99.30;;;;;;5064368;28;20150;-38
2021/03/15 05:26:32;;;;;;;9.70;4.70;;;6.40;99.20;;;;;;5064321;28;20035;-35
2021/03/15 05:29:00;;;;;;;8.00;4.25;;;6.40;99.20;;;;;;5065155;28;20096;-37
2021/03/15 05:31:27;;;;;;;7.68;4.38;;;6.50;99.20;;;;;;5064036;28;20166;-35
2021/03/15 05:33:54;;;;;;;10.07;4.50;;;6.50;99.20;;;;;;5064702;28;20021;-37
2021/03/15 05:36:20;;;;;;;10.13;4.60;;;6.50;99.20;;;;;;5065047;28;20026;-35
2021/03/15 05:38:45;;;;;;;8.70;5.00;;;6.40;99.20;;;;;;5063749;28;20108;-35
2021/03/15 05:41:13;;;;;;;9.82;5.55;;;6.50;99.10;;;;;;5063163;28;20119;-37
2021/03/15 05:43:47;;;;;;;7.32;3.85;;;6.40;99.30;;;;;;5063931;28;20017;-38
2021/03/15 05:46:51;;;;;;;8.63;4.40;;;6.50;99.00;;;;;;5063002;28;20028;-35
2021/03/15 05:49:51;;;;;;;7.10;3.50;;;6.40;99.00;;;;;;5056591;28;20475;-37
2021/03/15 05:52:56;;;;;;;6.53;3.90;;;6.40;99.00;;;;;;5062863;28;20287;-35
2021/03/15 05:55:40;;;;;;;9.73;4.22;;;6.30;98.90;;;;;;5043562;28;20456;-37
2021/03/15 05:58:16;;;;;;;10.23;4.35;;;6.20;98.90;;;;;;5060914;28;20552;-39
2021/03/15 06:01:03;;;;;;;6.25;3.92;;;6.10;99.00;;;;;;5064690;28;20112;-38
2021/03/15 06:04:25;;;;;;;7.22;4.60;;;6.00;99.00;;;;;;5067488;28;20025;-38
2021/03/15 06:06:53;;;;;;;8.05;4.10;;;6.00;99.10;;;;;;5023931;28;20354;-37
2021/03/15 06:09:20;;;;;;;6.00;3.83;;;5.90;99.10;;;;;;5024234;28;20025;-36
2021/03/15 06:11:50;;;;;;;8.40;4.50;;;6.00;99.20;;;;;;5050361;28;20082;-36
2021/03/15 06:14:16;;;;;;;7.50;4.28;;;6.10;99.20;;;;;;5066826;28;20113;-37
2021/03/15 06:16:48;;;;;;;8.27;4.20;;;6.10;99.20;;;;;;5067114;28;20036;-33
2021/03/15 06:19:14;;;;;;;7.90;4.18;;;6.10;99.20;;;;;;5066181;28;20116;-35
2021/03/15 06:21:41;;;;;;;10.30;5.10;;;6.20;99.20;;;;;;5066542;28;20425;-38
2021/03/15 06:24:07;;;;;;;9.82;5.00;;;6.20;99.10;;;;;;5066625;28;20121;-39
2021/03/15 06:26:33;;;;;;;7.68;4.68;;;6.20;99.10;;;;;;5067111;28;20156;-34
2021/03/15 06:29:01;;;;;;;6.78;4.70;;;6.20;99.10;;;;;;5066709;28;20039;-39
2021/03/15 06:31:28;;;;;;;8.43;4.63;;;6.30;99.10;;;;;;5066966;28;20726;-36
2021/03/15 06:33:54;;;;;;;7.03;4.25;;;6.30;99.10;;;;;;5067225;28;20535;-38
2021/03/15 06:36:20;;;;;;;7.40;4.10;;;6.30;99.10;;;;;;5066406;28;20078;-38
2021/03/15 06:38:46;;;;;;;10.23;4.47;;;6.30;99.00;;;;;;5066702;28;20028;-35
2021/03/15 06:41:14;;;;;;;8.88;5.28;;;6.30;99.10;;;;;;5064543;28;20514;-37
2021/03/15 06:43:40;;;;;;;12.55;5.50;;;6.30;99.00;;;;;;5066039;28;20063;-35
2021/03/15 06:46:06;;;;;;;9.27;4.55;;;6.30;99.10;;;;;;5066535;28;20029;-37
2021/03/15 06:48:31;;;;;;;8.43;4.43;;;6.40;99.10;;;;;;5065914;28;20517;-39
2021/03/15 06:50:57;;;;;;;8.60;4.70;;;6.40;99.10;;;;;;5066938;28;20028;-38
2021/03/15 06:53:24;;;;;;;9.85;5.60;;;6.40;99.10;;;;;;5066404;28;20044;-37
2021/03/15 06:55:56;;;;;;;8.30;5.22;;;6.40;99.20;;;;;;5066292;28;20048;-37
2021/03/15 06:58:26;;;;;;;12.52;5.00;;;6.40;99.20;;;;;;5065101;28;20504;-37
2021/03/15 07:01:17;;;;;;;9.65;4.90;;;6.50;99.20;;;;;;5064947;28;20559;-34
2021/03/15 07:03:45;;;;;;;10.60;5.38;;;6.50;99.20;;;;;;5065711;28;20124;-33
2021/03/15 07:06:11;;;;;;;14.70;5.65;;;6.60;99.20;;;;;;5066119;28;20032;-33
2021/03/15 07:08:36;;;;;;;15.90;4.80;;;6.60;99.10;;;;;;5065516;28;20036;-36
2021/03/15 07:11:02;;;;;;;10.10;4.28;;;6.60;99.10;;;;;;5064939;28;20024;-35
2021/03/15 07:13:37;;;;;;;11.65;4.70;;;6.60;99.10;;;;;;5065247;28;20028;-35
2021/03/15 07:16:03;;;;;;;13.43;4.75;;;6.60;99.10;;;;;;5064652;28;20388;-37
2021/03/15 07:18:33;;;;;;;10.13;4.15;;;6.70;99.00;;;;;;5065341;28;20078;-38
2021/03/15 07:21:04;;;;;;;18.13;6.10;;;6.80;98.90;;;;;;5065107;28;20083;-38
2021/03/15 07:23:58;;;;;;;19.23;5.75;;;6.80;98.70;;;;;;5064497;28;20040;-35
2021/03/15 07:26:29;;;;;;;20.92;6.68;;;6.80;98.70;;;;;;5064521;28;20029;-35
2021/03/15 07:28:55;;;;;;;13.73;5.05;;;6.90;98.60;;;;;;5057568;28;20100;-38
2021/03/15 07:31:30;;;;;;;15.57;6.38;;;6.90;98.50;;;;;;5065135;28;20479;-35
2021/03/15 07:33:56;;;;;;;15.65;5.15;;;6.90;98.30;;;;;;5066324;28;20460;-37
2021/03/15 07:36:25;;;;;;;13.40;4.10;;;6.90;98.40;;;;;;5065756;28;20028;-37
2021/03/15 07:38:51;;;;;;;16.20;4.25;;;7.00;98.40;;;;;;5065824;28;20452;-38
2021/03/15 07:41:18;;;;;;;15.02;4.03;;;7.00;98.30;;;;;;5065690;28;20051;-38
2021/03/15 07:43:44;;;;;;;16.38;4.60;;;7.10;98.20;;;;;;5066109;28;20032;-39
2021/03/15 07:46:29;;;;;;;15.65;3.90;;;7.00;98.00;;;;;;5064922;28;20070;-37
2021/03/15 07:48:58;;;;;;;15.15;4.72;;;6.90;98.10;;;;;;5066062;28;20036;-39
2021/03/15 07:51:31;;;;;;;15.60;4.22;;;6.90;98.00;;;;;;5065519;28;20067;-35
2021/03/15 07:54:10;;;;;;;11.50;3.40;;;6.90;98.10;;;;;;5065563;28;20044;-36
2021/03/15 07:56:37;;;;;;;15.02;3.90;;;6.90;98.20;;;;;;5065546;28;20429;-38
2021/03/15 07:59:04;;;;;;;15.07;3.80;;;7.00;97.90;;;;;;5060827;28;20025;-37
2021/03/15 08:01:30;;;;;;;12.50;3.95;;;7.10;97.70;;;;;;5063774;28;20046;-36
2021/03/15 08:03:56;;;;;;;15.55;3.50;;;7.10;97.80;;;;;;5065909;28;20133;-36
2021/03/15 08:06:23;;;;;;;13.27;3.10;;;7.10;97.60;;;;;;5064787;28;20253;-39
2021/03/15 08:08:49;;;;;;;16.50;4.60;;;7.20;97.50;;;;;;5065043;28;20032;-34
2021/03/15 08:11:19;;;;;;;17.30;3.15;;;7.30;97.50;;;;;;5064962;28;20032;-39
2021/03/15 08:13:48;;;;;;;10.20;2.80;;;7.30;97.40;;;;;;5064470;28;20116;-38
2021/03/15 08:16:17;;;;;;;14.95;3.17;;;7.40;97.50;;;;;;5064839;28;20135;-38
2021/03/15 08:18:44;;;;;;;11.75;2.58;;;7.50;96.90;;;;;;5064754;28;20174;-39
2021/03/15 08:21:12;;;;;;;13.40;3.10;;;7.50;96.90;;;;;;5063715;28;20487;-39
2021/03/15 08:23:43;;;;;;;12.02;2.28;;;7.40;95.70;;;;;;5064825;28;20020;-38
2021/03/15 08:26:11;;;;;;;12.77;2.22;;;7.30;95.90;;;;;;5065210;28;20451;-39
2021/03/15 08:28:38;;;;;;;14.05;2.28;;;7.30;95.60;;;;;;5064462;28;20024;-37
2021/03/15 08:31:28;;;;;;;12.13;2.22;;;7.20;94.40;;;;;;5064965;28;20086;-36
2021/03/15 08:33:54;;;;;;;13.25;2.22;;;7.20;94.40;;;;;;5061230;28;20383;-36
2021/03/15 08:36:20;;;;;;;14.77;2.42;;;7.20;94.60;;;;;;5064257;28;20620;-39
2021/03/15 08:38:45;;;;;;;12.88;2.10;;;7.20;93.50;;;;;;5064603;28;20021;-38
2021/03/15 08:41:18;;;;;;;10.50;2.15;;;7.20;93.80;;;;;;5064329;28;20044;-35
2021/03/15 08:43:46;;;;;;;11.40;2.13;;;7.30;93.90;;;;;;5064409;28;20067;-38
2021/03/15 08:46:21;;;;;;;9.65;1.80;;;7.40;93.10;;;;;;5064143;28;20037;-36
2021/03/15 08:48:50;;;;;;;11.88;1.88;;;7.40;93.20;;;;;;5064009;28;20563;-39
2021/03/15 08:51:44;;;;;;;8.52;2.20;;;7.40;92.00;;;;;;5064926;28;20044;-38
2021/03/15 08:54:10;;;;;;;12.30;2.38;;;7.50;92.50;;;;;;5059638;28;20044;-32
2021/03/15 08:56:40;;;;;;;10.48;2.53;;;7.50;92.60;;;;;;5064274;28;20036;-34
2021/03/15 08:59:10;;;;;;;9.02;2.17;;;7.60;92.30;;;;;;5064454;28;20028;-34
2021/03/15 09:01:54;;;;;;;8.80;1.92;;;7.60;92.70;;;;;;5064183;28;20157;-33
2021/03/15 09:04:42;;;;;;;8.43;2.08;;;7.80;91.20;;;;;;5064114;28;20035;-36
2021/03/15 09:07:34;;;;;;;11.50;1.83;;;7.90;90.90;;;;;;5064710;28;20033;-35
2021/03/15 09:10:24;;;;;;;17.10;2.55;;;8.10;89.30;;;;;;5063414;28;20059;-39
2021/03/15 09:13:22;;;;;;;9.32;2.25;;;8.10;88.70;;;;;;5046408;28;20037;-39
2021/03/15 09:16:08;;;;;;;8.93;1.90;;;8.10;88.80;;;;;;5053951;28;20036;-38
2021/03/15 09:18:48;;;;;;;11.27;2.83;;;8.20;88.50;;;;;;5064262;28;20116;-39
2021/03/15 09:21:26;;;;;;;69.32;6.30;;;8.20;86.90;;;;;;5062465;28;20119;-36
2021/03/15 09:23:55;;;;;;;8.27;1.95;;;8.10;89.30;;;;;;5063848;28;20107;-38
2021/03/15 09:26:24;;;;;;;7.40;1.65;;;8.10;90.20;;;;;;5064082;28;20059;-39
2021/03/15 09:28:53;;;;;;;7.65;1.60;;;8.10;90.20;;;;;;5063829;28;20387;-39
2021/03/15 09:31:21;;;;;;;12.07;1.75;;;8.10;89.80;;;;;;5063584;28;20020;-36
2021/03/15 09:33:47;;;;;;;8.23;1.52;;;8.20;90.00;;;;;;5064231;28;20029;-38
2021/03/15 09:36:26;;;;;;;10.70;1.88;;;8.30;88.10;;;;;;5066392;28;20090;-37
2021/03/15 09:38:54;;;;;;;9.93;1.45;;;8.40;88.10;;;;;;5068039;28;20021;-37
2021/03/15 09:41:22;;;;;;;9.23;1.88;;;8.40;88.00;;;;;;5067663;28;20028;-38
2021/03/15 09:43:48;;;;;;;8.48;1.90;;;8.40;85.80;;;;;;5068143;28;20024;-36
2021/03/15 09:46:14;;;;;;;5.85;1.73;;;8.40;86.90;;;;;;5067399;28;20599;-36
2021/03/15 09:48:40;;;;;;;9.88;1.65;;;8.50;85.30;;;;;;5067889;28;20120;-36
2021/03/15 09:51:08;;;;;;;11.23;2.03;;;8.50;85.70;;;;;;5067611;28;20021;-39
2021/03/15 09:53:34;;;;;;;5.13;1.23;;;8.50;86.10;;;;;;5067639;28;20052;-36
2021/03/15 09:56:11;;;;;;;7.32;1.77;;;8.50;87.60;;;;;;5067905;28;20020;-38
2021/03/15 09:58:37;;;;;;;9.48;2.00;;;8.50;88.40;;;;;;5065034;28;20028;-38
2021/03/15 10:01:10;;;;;;;10.45;1.80;;;8.50;87.20;;;;;;5067345;28;20029;-38
2021/03/15 10:03:36;;;;;;;11.93;1.60;;;8.50;88.50;;;;;;5063052;28;20044;-38
2021/03/15 10:06:01;;;;;;;8.23;2.00;;;8.50;88.60;;;;;;5066307;28;20028;-35
2021/03/15 10:08:27;;;;;;;11.18;2.03;;;8.50;90.00;;;;;;5067622;28;20438;-38
2021/03/15 10:10:53;;;;;;;7.43;1.63;;;8.30;89.80;;;;;;5066364;28;20103;-35
2021/03/15 10:13:19;;;;;;;7.07;1.70;;;8.20;90.40;;;;;;5060524;28;20056;-38
2021/03/15 10:15:51;;;;;;;11.90;1.60;;;8.00;90.70;;;;;;5061894;28;21162;-32
2021/03/15 10:18:17;;;;;;;7.50;1.58;;;8.10;90.90;;;;;;5065353;28;20142;-35
2021/03/15 10:20:43;;;;;;;6.90;1.45;;;8.20;91.20;;;;;;5066340;28;20024;-37
2021/03/15 10:23:20;;;;;;;8.02;1.95;;;8.30;90.30;;;;;;5066924;28;20082;-34
2021/03/15 10:26:03;;;;;;;9.73;1.90;;;8.50;90.30;;;;;;5066984;28;20311;-36
2021/03/15 10:28:30;;;;;;;7.85;1.70;;;8.70;90.30;;;;;;5066748;28;20016;-35
2021/03/15 10:30:56;;;;;;;8.98;2.10;;;8.80;90.00;;;;;;5066748;28;20100;-36
2021/03/15 10:33:23;;;;;;;9.63;1.65;;;8.90;87.00;;;;;;5066512;28;20025;-38
2021/03/15 10:35:54;;;;;;;10.25;1.80;;;8.90;87.40;;;;;;5066428;28;20033;-36
2021/03/15 10:38:20;;;;;;;7.80;1.83;;;9.00;85.90;;;;;;5066769;28;20476;-36
2021/03/15 10:40:47;;;;;;;11.75;2.22;;;9.00;84.80;;;;;;5066009;28;20127;-33
2021/03/15 10:43:16;;;;;;;8.68;2.60;;;9.00;85.30;;;;;;5066535;28;20029;-36
2021/03/15 10:45:45;;;;;;;17.92;4.05;;;9.10;86.10;;;;;;5067224;28;20025;-36
2021/03/15 10:48:11;;;;;;;42.58;4.80;;;9.10;86.10;;;;;;5065073;28;20656;-37
2021/03/15 10:50:39;;;;;;;25.15;3.03;;;9.00;86.90;;;;;;5064880;28;20032;-36
2021/03/15 10:53:18;;;;;;;15.60;2.22;;;9.00;87.20;;;;;;5064761;28;20140;-39
2021/03/15 10:55:44;;;;;;;14.63;2.30;;;8.90;89.60;;;;;;5066369;28;20034;-38
2021/03/15 10:58:32;;;;;;;64.90;10.80;;;8.80;89.60;;;;;;5066448;28;20488;-34
2021/03/15 11:01:01;;;;;;;10.32;2.17;;;8.70;90.30;;;;;;5059212;28;20534;-34
2021/03/15 11:03:30;;;;;;;10.27;1.80;;;8.80;90.50;;;;;;5065965;28;20637;-36
2021/03/15 11:06:06;;;;;;;11.48;2.15;;;8.80;89.80;;;;;;5058813;28;20039;-37
2021/03/15 11:08:33;;;;;;;12.75;1.95;;;8.90;89.10;;;;;;5062119;28;20107;-38
2021/03/15 11:11:16;;;;;;;12.38;1.60;;;9.00;85.60;;;;;;5065515;28;20032;-39
2021/03/15 11:13:46;;;;;;;28.20;5.15;;;9.00;84.60;;;;;;5064661;28;20127;-37
2021/03/15 11:16:18;;;;;;;8.82;1.52;;;9.20;84.20;;;;;;5065721;28;20023;-39
2021/03/15 11:18:44;;;;;;;6.97;1.60;;;9.40;85.00;;;;;;5065144;28;20104;-40
2021/03/15 11:21:11;;;;;;;7.07;1.42;;;9.60;83.10;;;;;;5065525;28;20479;-33
2021/03/15 11:23:39;;;;;;;5.85;1.23;;;9.60;81.60;;;;;;5065730;28;20025;-36
2021/03/15 11:26:12;;;;;;;11.85;1.73;;;9.70;81.40;;;;;;5065913;28;20016;-36
2021/03/15 11:28:43;;;;;;;8.77;1.60;;;9.60;80.30;;;;;;5066356;28;20039;-38
2021/03/15 11:31:15;;;;;;;12.02;1.80;;;9.50;82.40;;;;;;5065636;28;20113;-33
2021/03/15 11:33:40;;;;;;;7.38;1.58;;;9.40;83.30;;;;;;5065838;28;20730;-37
2021/03/15 11:36:15;;;;;;;11.55;1.77;;;9.30;84.60;;;;;;5066134;28;20063;-37
2021/03/15 11:38:48;;;;;;;6.72;1.38;;;9.20;84.00;;;;;;5065662;28;20367;-38
2021/03/15 11:41:21;;;;;;;8.75;1.60;;;9.20;84.70;;;;;;5066020;28;20021;-36
2021/03/15 11:43:47;;;;;;;8.63;1.60;;;9.20;85.90;;;;;;5065494;28;20060;-38
2021/03/15 11:46:13;;;;;;;6.00;1.48;;;9.10;86.80;;;;;;5066227;28;20055;-37
2021/03/15 11:48:39;;;;;;;14.20;2.55;;;9.10;87.60;;;;;;5065833;28;20119;-38
2021/03/15 11:51:06;;;;;;;13.77;2.00;;;9.20;88.30;;;;;;5065295;28;20077;-36
2021/03/15 11:53:32;;;;;;;13.30;2.30;;;9.30;86.10;;;;;;5065713;28;20040;-38
2021/03/15 11:56:00;;;;;;;12.27;2.25;;;9.20;86.60;;;;;;5065847;28;20031;-37
2021/03/15 11:58:25;;;;;;;14.48;3.00;;;9.30;87.50;;;;;;5064525;28;20436;-36
2021/03/15 12:00:51;;;;;;;15.45;3.00;;;9.40;87.90;;;;;;5065786;28;20033;-33
2021/03/15 12:03:17;;;;;;;13.70;2.03;;;9.30;87.50;;;;;;5065530;28;20136;-37
2021/03/15 12:05:42;;;;;;;12.65;2.30;;;9.20;90.10;;;;;;5064358;28;20024;-35
2021/03/15 12:08:08;;;;;;;12.10;2.47;;;9.00;91.30;;;;;;5065627;28;20124;-33
2021/03/15 12:10:33;;;;;;;10.77;2.55;;;8.80;91.80;;;;;;5065674;28;20024;-34
2021/03/15 12:13:01;;;;;;;17.05;2.78;;;8.70;91.80;;;;;;5065444;28;20111;-35
2021/03/15 12:15:27;;;;;;;15.15;2.45;;;8.50;92.90;;;;;;5065517;28;20039;-37
2021/03/15 12:17:53;;;;;;;11.73;2.00;;;8.30;93.30;;;;;;5065524;28;20028;-38
2021/03/15 12:20:18;;;;;;;14.15;2.85;;;8.30;93.60;;;;;;5064684;28;20536;-38
2021/03/15 12:22:46;;;;;;;15.52;4.05;;;8.50;94.20;;;;;;5065012;28;20028;-37
2021/03/15 12:25:12;;;;;;;16.23;2.30;;;8.70;93.60;;;;;;5064811;28;20108;-36
2021/03/15 12:27:38;;;;;;;9.60;2.22;;;8.80;91.70;;;;;;5064512;28;20147;-35
2021/03/15 12:30:04;;;;;;;9.13;1.60;;;8.70;91.70;;;;;;5065030;28;20016;-38
2021/03/15 12:32:29;;;;;;;11.98;2.58;;;8.60;91.00;;;;;;5064984;28;20029;-38
2021/03/15 12:34:55;;;;;;;9.05;1.73;;;8.60;91.00;;;;;;5064678;28;20494;-37
2021/03/15 12:37:21;;;;;;;10.25;1.67;;;8.70;89.30;;;;;;5064715;28;20527;-37
2021/03/15 12:39:48;;;;;;;8.80;1.92;;;8.80;90.00;;;;;;5064584;28;20032;-37
2021/03/15 12:42:17;;;;;;;8.15;1.73;;;9.10;90.00;;;;;;5064138;28;20048;-34
2021/03/15 12:44:43;;;;;;;14.10;2.33;;;9.20;85.30;;;;;;5064355;28;20523;-37
2021/03/15 12:47:09;;;;;;;7.10;1.80;;;9.20;86.70;;;;;;5063779;28;20472;-38
2021/03/15 12:49:35;;;;;;;7.65;1.90;;;9.10;87.90;;;;;;5064155;28;20126;-35
2021/03/15 12:52:01;;;;;;;10.23;2.00;;;9.10;89.80;;;;;;5064439;28;20109;-39
2021/03/15 12:54:26;;;;;;;10.07;1.58;;;8.80;92.40;;;;;;5064141;28;20524;-35
2021/03/15 12:56:52;;;;;;;8.05;1.58;;;8.40;93.30;;;;;;5064128;28;20042;-35
2021/03/15 12:59:18;;;;;;;8.23;1.55;;;8.00;95.00;;;;;;5064214;28;20035;-38
2021/03/15 13:01:43;;;;;;;9.82;1.67;;;7.80;95.50;;;;;;5063858;28;20361;-34
2021/03/15 13:04:10;;;;;;;10.48;1.85;;;7.50;96.40;;;;;;5064241;28;20021;-37
2021/03/15 13:06:36;;;;;;;9.95;1.95;;;7.30;97.40;;;;;;5063967;28;20016;-38